Ana Sayfa
METAR-TAF:

METAR-TAF

Havaalanları :

Bedford, Pensilvanya, Amerika Birleşik Devletleri

Enlem: 40-05-10N, Boylam: 078-30-49W, yükseklik: 354 m

Güncel hava durumu gözlemi

Rapor saat 20:35 UTC de 23 dakika önce yapıldı.
Rüzgar doğu/güneydoğudan 3 kt
Sıcaklık 6°C
Nem 49%
Basınç 1026 hPa
Görüş mesafesi: 16.1 km
8500 ft yükseklikte parçalı bulutlu
11000 ft yükseklikte çok bulutlu

METAR: KHMZ 242035Z AUTO 12003KT 10SM SCT085 OVC110 06/M04 A3030 RMK AO2 T00641042

Saat: 15:58 (20:58 UTC)


TAF: eksik

4.000'den fazla havaalanı için hava durumu gözlemleri ve tahminleri (METAR ve TAF raporları).

Kullanılabilir istasyonlar harita üzerinde sarı ve kırmızı noktalarla gösterilir.

İstasyonun adını görmek için fareyi noktanın üzerinde gezdirin.

Sonrasında hava gözlem ve tahminlerini görmek için tıklayın.

Haritayı değiştirmek için: yaklaştırmak için siyah artı işaretli yeşil düğmeye ve uzaklaştırmak için de eksi işaretli düğmeye hızla tıklayın; bitişik haritalar için yeşil okları kullanın.


METAR-TAF: